Hamadan Airport

Airport
ICAO code: 
OIHH
IATA Code: 
HDM
Summary
ICAO Region: 
MID
Territory: 
Location: 
Hamedan, Hamadan Province
Serving: 
Hamedan
Elevation: 
5755 ft
Coordinates: 
Aerial View: 
34° 52' 2.28" N, 48° 32' 16.283" E
Metar
Observation
OIHH 262000Z 36002KT CAVOK 18/M03 Q1012 A2990
Station
Hamadan
Date/Time
2022-06-26 20:00:00
Wind direction
360°
Wind speed
02 kts
Lowest cloud amount
clouds and visibility OK
Temperature
18°C
Dew point
-3°C
Humidity
23%
QNH
1012 hPa
Weather condition
n/a

Airport 8km north of Hamedan, a city in Iran.

Climatology

Continental climate (Köppen climate classification Dsa). The temperature may drop below −30 °C (−22 °F) on the coldest days. Heavy snowfall is common during winter and this can persist for periods of up to two months. During the short summer, the weather is mild, pleasant, and mostly sunny.

Runways

Designator Length Width Surface Rops
10/28 3234 45 ASP No/No
Airport map: 
Aerial View: 

SKYbrary Partners:

Safety knowledge contributed by: